createdAt,value
2019-03-16T00:00:55.766Z,97.34
2019-03-16T00:03:24.816Z,97.27
2019-03-16T00:05:54.168Z,97.27
2019-03-16T00:08:23.219Z,97.30
2019-03-16T00:10:52.227Z,97.08
2019-03-16T00:13:21.263Z,97.08
2019-03-16T00:15:50.278Z,97.37
2019-03-16T00:18:19.214Z,97.40
2019-03-16T00:20:48.611Z,97.42
2019-03-16T00:23:18.033Z,97.18
2019-03-16T00:25:47.068Z,96.97
2019-03-16T00:28:16.135Z,96.97
2019-03-16T00:30:46.121Z,97.44
2019-03-16T00:33:15.420Z,97.09
2019-03-16T00:35:44.748Z,97.25
2019-03-16T00:38:13.762Z,97.06
2019-03-16T00:40:42.760Z,96.66
2019-03-16T00:43:11.840Z,96.89
2019-03-16T00:45:40.908Z,97.12
2019-03-16T00:48:09.902Z,96.97
2019-03-16T00:50:38.938Z,96.97
2019-03-16T00:53:07.950Z,96.48
2019-03-16T00:55:36.980Z,96.45
2019-03-16T00:58:06.014Z,96.54
2019-03-16T01:00:35.372Z,96.37
2019-03-16T01:03:04.636Z,96.25
2019-03-16T01:05:33.686Z,96.36
2019-03-16T01:08:03.020Z,96.10
2019-03-16T01:10:32.384Z,96.24
2019-03-16T01:13:01.687Z,96.21
2019-03-16T01:15:31.404Z,96.19
2019-03-16T01:18:00.442Z,96.55
2019-03-16T01:20:29.490Z,96.26
2019-03-16T01:22:58.540Z,95.72
2019-03-16T01:25:27.882Z,96.26
2019-03-16T01:27:57.191Z,96.13
2019-03-16T01:30:26.604Z,96.05
2019-03-16T01:32:55.958Z,96.10
2019-03-16T01:35:25.019Z,96.19
2019-03-16T01:37:54.034Z,95.94
2019-03-16T01:40:23.059Z,95.97
2019-03-16T01:42:52.126Z,95.87
2019-03-16T01:45:21.196Z,96.07
2019-03-16T01:47:50.234Z,95.81
2019-03-16T01:50:21.709Z,96.06
2019-03-16T01:52:50.076Z,95.99
2019-03-16T01:55:19.392Z,95.85
2019-03-16T01:57:48.464Z,96.12
2019-03-16T02:00:17.592Z,96.03
2019-03-16T02:02:54.938Z,95.98
2019-03-16T02:05:17.725Z,96.08
2019-03-16T02:07:47.120Z,96.14
2019-03-16T02:10:16.529Z,96.08
2019-03-16T02:12:45.834Z,95.88
2019-03-16T02:15:14.930Z,96.37
2019-03-16T02:17:44.332Z,96.51
2019-03-16T02:20:13.735Z,96.32
2019-03-16T02:22:43.063Z,96.56
2019-03-16T02:25:12.078Z,96.52
2019-03-16T02:27:41.114Z,96.58
2019-03-16T02:30:10.194Z,96.52
2019-03-16T02:32:39.240Z,96.49
2019-03-16T02:35:08.648Z,96.71
2019-03-16T02:37:37.647Z,96.61
2019-03-16T02:40:06.917Z,96.84
2019-03-16T02:42:36.287Z,97.46
2019-03-16T02:45:05.597Z,97.06
2019-03-16T02:47:35.370Z,97.08
2019-03-16T02:50:05.446Z,96.81
2019-03-16T02:52:35.439Z,96.70
2019-03-16T02:55:05.156Z,96.27
2019-03-16T02:57:34.596Z,95.93
2019-03-16T03:00:03.834Z,95.59
2019-03-16T03:02:32.849Z,95.26
2019-03-16T03:05:02.236Z,95.11
2019-03-16T03:07:31.252Z,95.00
2019-03-16T03:10:00.612Z,94.55
2019-03-16T03:12:29.611Z,94.40
2019-03-16T03:14:58.640Z,93.92
2019-03-16T03:17:28.056Z,94.27
2019-03-16T03:19:57.090Z,94.40
2019-03-16T03:22:26.528Z,94.59
2019-03-16T03:24:55.531Z,94.37
2019-03-16T03:27:24.581Z,94.25
2019-03-16T03:29:57.139Z,93.79
2019-03-16T03:32:24.345Z,93.94
2019-03-16T03:34:53.401Z,93.78
2019-03-16T03:37:22.450Z,94.13
2019-03-16T03:39:51.451Z,93.70
2019-03-16T03:42:20.479Z,93.76
2019-03-16T03:44:49.806Z,93.05
2019-03-16T03:47:19.183Z,93.47
2019-03-16T03:49:48.532Z,93.51
2019-03-16T03:52:18.259Z,93.18
2019-03-16T03:54:48.115Z,93.02
2019-03-16T03:57:17.437Z,93.44
2019-03-16T03:59:46.461Z,93.12
2019-03-16T04:02:15.508Z,93.14
2019-03-16T04:04:44.557Z,93.43
2019-03-16T04:07:13.562Z,93.37
2019-03-16T04:09:42.580Z,93.01
2019-03-16T04:12:11.604Z,93.32
2019-03-16T04:14:40.652Z,93.01
2019-03-16T04:17:09.749Z,92.54
2019-03-16T04:19:38.785Z,92.30
2019-03-16T04:22:07.802Z,92.46
2019-03-16T04:24:36.925Z,92.33
2019-03-16T04:27:15.995Z,92.42
2019-03-16T04:29:37.025Z,92.30
2019-03-16T04:32:06.074Z,92.10
2019-03-16T04:34:35.161Z,92.24
2019-03-16T04:37:04.546Z,92.46
2019-03-16T04:39:33.557Z,92.16
2019-03-16T04:42:02.726Z,91.74
2019-03-16T04:44:32.858Z,92.04
2019-03-16T04:47:02.583Z,91.94
2019-03-16T04:49:31.574Z,91.90
2019-03-16T04:52:00.938Z,92.06
2019-03-16T04:54:30.303Z,92.08
2019-03-16T04:56:59.648Z,91.88
2019-03-16T04:59:29.052Z,92.00
2019-03-16T05:01:58.102Z,91.38
2019-03-16T05:04:27.190Z,91.35
2019-03-16T05:06:59.056Z,91.20
2019-03-16T05:09:28.023Z,90.71
2019-03-16T05:11:57.812Z,90.78
2019-03-16T05:14:26.834Z,90.58
2019-03-16T05:16:55.896Z,90.80
2019-03-16T05:19:24.932Z,90.93
2019-03-16T05:21:53.982Z,90.53
2019-03-16T05:24:23.396Z,90.33
2019-03-16T05:26:52.687Z,89.97
2019-03-16T05:29:21.996Z,90.35
2019-03-16T05:31:51.080Z,89.77
2019-03-16T05:34:20.156Z,89.86
2019-03-16T05:36:49.180Z,90.13
2019-03-16T05:39:18.203Z,89.80
2019-03-16T05:41:47.623Z,89.18
2019-03-16T05:44:17.393Z,89.30
2019-03-16T05:46:46.746Z,89.19
2019-03-16T05:49:16.101Z,89.32
2019-03-16T05:51:45.168Z,88.73
2019-03-16T05:54:14.215Z,88.16
2019-03-16T05:56:43.260Z,87.71
2019-03-16T05:59:12.278Z,88.02
2019-03-16T06:01:41.307Z,87.68
2019-03-16T06:04:10.327Z,87.60
2019-03-16T06:06:39.377Z,86.69
2019-03-16T06:09:08.761Z,87.42
2019-03-16T06:11:38.175Z,87.30
2019-03-16T06:14:07.204Z,88.08
2019-03-16T06:16:37.189Z,87.50
2019-03-16T06:19:06.241Z,86.91
2019-03-16T06:21:35.257Z,86.88
2019-03-16T06:24:04.460Z,86.78
2019-03-16T06:26:33.769Z,86.76
2019-03-16T06:29:03.109Z,85.66
2019-03-16T06:31:32.184Z,85.33
2019-03-16T06:34:01.519Z,85.44
2019-03-16T06:36:30.542Z,85.02
2019-03-16T06:38:59.586Z,85.47
2019-03-16T06:41:28.592Z,85.04
2019-03-16T06:43:57.954Z,85.08
2019-03-16T06:46:26.954Z,84.65
2019-03-16T06:48:56.357Z,84.65
2019-03-16T06:51:25.656Z,84.59
2019-03-16T06:53:54.675Z,84.61
2019-03-16T06:56:24.090Z,84.61
2019-03-16T06:58:54.606Z,84.00
2019-03-16T07:01:23.917Z,84.05
2019-03-16T07:03:53.346Z,84.32
2019-03-16T07:06:22.724Z,84.56
2019-03-16T07:08:51.769Z,84.05
2019-03-16T07:11:20.783Z,83.92
2019-03-16T07:13:50.107Z,83.75
2019-03-16T07:16:19.140Z,83.09
2019-03-16T07:18:58.230Z,83.42
2019-03-16T07:21:19.341Z,83.42
2019-03-16T07:23:48.626Z,82.53
2019-03-16T07:26:17.700Z,82.53
2019-03-16T07:28:47.045Z,82.14
2019-03-16T07:31:16.114Z,82.10
2019-03-16T07:33:45.153Z,82.50
2019-03-16T07:36:14.323Z,81.73
2019-03-16T07:38:43.349Z,81.86
2019-03-16T07:41:12.378Z,81.06
2019-03-16T07:43:41.701Z,81.21
2019-03-16T07:46:11.100Z,81.42
2019-03-16T07:48:40.424Z,81.42
2019-03-16T07:51:09.911Z,80.96
2019-03-16T07:53:39.345Z,80.95
2019-03-16T07:56:08.401Z,80.89
2019-03-16T07:58:37.410Z,80.49
2019-03-16T08:01:06.452Z,80.37
2019-03-16T08:03:35.509Z,79.74
2019-03-16T08:06:04.853Z,80.36
2019-03-16T08:08:34.235Z,80.17
2019-03-16T08:11:03.558Z,79.76
2019-03-16T08:13:32.597Z,79.53
2019-03-16T08:16:01.662Z,79.02
2019-03-16T08:18:30.659Z,79.23
2019-03-16T08:20:59.693Z,79.76
2019-03-16T08:23:29.091Z,80.26
2019-03-16T08:25:58.491Z,79.75
2019-03-16T08:28:27.787Z,79.50
2019-03-16T08:30:57.034Z,79.74
2019-03-16T08:33:26.403Z,79.79
2019-03-16T08:35:55.789Z,79.90
2019-03-16T08:38:24.801Z,80.16
2019-03-16T08:40:54.216Z,79.54
2019-03-16T08:43:23.242Z,79.47
2019-03-16T08:45:52.285Z,79.27
2019-03-16T08:48:23.249Z,79.27
2019-03-16T08:50:53.043Z,78.20
2019-03-16T08:53:23.130Z,78.32
2019-03-16T08:55:52.651Z,77.87
2019-03-16T08:58:22.287Z,77.98
2019-03-16T09:00:52.125Z,77.93
2019-03-16T09:03:21.550Z,77.49
2019-03-16T09:05:51.176Z,76.75
2019-03-16T09:08:20.255Z,77.18
2019-03-16T09:10:49.291Z,77.18
2019-03-16T09:13:18.381Z,76.81
2019-03-16T09:15:47.813Z,76.30
2019-03-16T09:18:17.707Z,76.01
2019-03-16T09:20:47.029Z,75.83
2019-03-16T09:23:16.063Z,75.06
2019-03-16T09:25:45.100Z,73.94
2019-03-16T09:28:18.611Z,74.16
2019-03-16T09:30:44.901Z,73.87
2019-03-16T09:33:14.132Z,72.81
2019-03-16T09:35:43.179Z,73.34
2019-03-16T09:38:12.744Z,74.24
2019-03-16T09:40:41.834Z,73.65
2019-03-16T09:43:11.151Z,73.19
2019-03-16T09:45:40.564Z,73.04
2019-03-16T09:48:09.605Z,73.53
2019-03-16T09:50:38.608Z,74.42
2019-03-16T09:53:07.943Z,73.82
2019-03-16T09:55:36.969Z,75.42
2019-03-16T09:58:06.017Z,75.54
2019-03-16T10:00:35.053Z,76.60
2019-03-16T10:03:04.134Z,77.42
2019-03-16T10:05:33.157Z,78.27
2019-03-16T10:08:02.205Z,78.24
2019-03-16T10:10:31.240Z,78.78
2019-03-16T10:13:00.317Z,78.17
2019-03-16T10:15:29.354Z,78.70
2019-03-16T10:17:58.997Z,78.40
2019-03-16T10:20:28.058Z,78.66
2019-03-16T10:22:57.415Z,78.56
2019-03-16T10:25:26.469Z,78.50
2019-03-16T10:27:55.589Z,79.36
2019-03-16T10:30:25.163Z,79.36
2019-03-16T10:32:54.201Z,78.66
2019-03-16T10:35:23.214Z,78.77
2019-03-16T10:37:52.373Z,79.21
2019-03-16T10:40:21.691Z,78.62
2019-03-16T10:42:50.749Z,78.62
2019-03-16T10:45:19.765Z,77.89
2019-03-16T10:47:48.802Z,77.56
2019-03-16T10:50:17.830Z,77.88
2019-03-16T10:52:46.955Z,77.73
2019-03-16T10:55:16.328Z,77.59
2019-03-16T10:57:45.450Z,76.45
2019-03-16T11:00:15.052Z,76.81
2019-03-16T11:02:44.462Z,75.90
2019-03-16T11:05:13.898Z,76.37
2019-03-16T11:07:43.649Z,76.71
2019-03-16T11:10:12.804Z,74.54
2019-03-16T11:12:41.823Z,73.88
2019-03-16T11:15:10.989Z,74.29
2019-03-16T11:17:40.024Z,73.08
2019-03-16T11:20:09.269Z,72.68
2019-03-16T11:22:38.333Z,72.50
2019-03-16T11:25:07.769Z,71.67
2019-03-16T11:27:36.817Z,72.67
2019-03-16T11:30:07.127Z,72.34
2019-03-16T11:32:36.561Z,72.39
2019-03-16T11:35:06.568Z,73.64
2019-03-16T11:37:35.595Z,73.06
2019-03-16T11:40:06.012Z,73.13
2019-03-16T11:42:35.116Z,71.62
2019-03-16T11:45:04.347Z,72.28
2019-03-16T11:47:33.733Z,72.01
2019-03-16T11:50:02.748Z,70.74
2019-03-16T11:52:32.411Z,72.29
2019-03-16T11:55:01.732Z,71.99
2019-03-16T11:57:31.018Z,72.07
2019-03-16T12:00:00.153Z,72.07
2019-03-16T12:02:29.133Z,70.58
2019-03-16T12:04:58.200Z,69.98
2019-03-16T12:07:27.220Z,70.08
2019-03-16T12:09:56.803Z,69.71
2019-03-16T12:12:26.118Z,69.75
2019-03-16T12:14:55.120Z,69.17
2019-03-16T12:17:24.452Z,69.94
2019-03-16T12:19:53.506Z,69.61
2019-03-16T12:22:22.533Z,69.70
2019-03-16T12:24:51.631Z,70.62
2019-03-16T12:27:20.700Z,70.66
2019-03-16T12:29:49.721Z,70.19
2019-03-16T12:32:18.755Z,70.06
2019-03-16T12:34:47.809Z,70.33
2019-03-16T12:37:16.845Z,70.62
2019-03-16T12:39:45.873Z,70.79
2019-03-16T12:42:14.887Z,70.60
2019-03-16T12:44:43.968Z,70.46
2019-03-16T12:47:13.088Z,70.50
2019-03-16T12:49:42.145Z,70.06
2019-03-16T12:52:11.545Z,70.45
2019-03-16T12:54:40.562Z,71.54
2019-03-16T12:57:09.603Z,71.64
2019-03-16T12:59:46.788Z,71.63
2019-03-16T13:02:09.468Z,71.34
2019-03-16T13:04:41.296Z,71.79
2019-03-16T13:07:10.365Z,71.94
2019-03-16T13:09:42.205Z,71.41
2019-03-16T13:12:10.853Z,71.66
2019-03-16T13:14:39.918Z,70.88
2019-03-16T13:17:08.929Z,70.37
2019-03-16T13:19:39.091Z,70.86
2019-03-16T13:22:08.113Z,70.96
2019-03-16T13:24:37.291Z,70.37
2019-03-16T13:27:06.405Z,70.63
2019-03-16T13:29:35.457Z,70.08
2019-03-16T13:32:04.780Z,69.79
2019-03-16T13:34:33.853Z,69.99
2019-03-16T13:37:03.152Z,71.19
2019-03-16T13:39:32.635Z,70.78
2019-03-16T13:42:02.023Z,70.45
2019-03-16T13:44:31.067Z,69.51
2019-03-16T13:47:00.372Z,69.33
2019-03-16T13:49:29.672Z,70.42
2019-03-16T13:51:59.185Z,69.82
2019-03-16T13:54:28.376Z,69.20
2019-03-16T13:56:57.403Z,69.78
2019-03-16T13:59:26.434Z,69.66
2019-03-16T14:01:55.804Z,69.44
2019-03-16T14:04:25.304Z,70.15
2019-03-16T14:06:55.027Z,69.24
2019-03-16T14:09:24.389Z,69.99
2019-03-16T14:11:53.676Z,69.79
2019-03-16T14:14:22.705Z,69.79
2019-03-16T14:16:52.401Z,70.11
2019-03-16T14:19:22.329Z,68.72
2019-03-16T14:21:51.711Z,68.03
2019-03-16T14:24:21.132Z,69.07
2019-03-16T14:26:50.184Z,68.23
2019-03-16T14:29:19.229Z,69.36
2019-03-16T14:31:48.629Z,68.47
2019-03-16T14:34:18.024Z,68.01
2019-03-16T14:36:47.026Z,68.01
2019-03-16T14:39:16.421Z,67.77
2019-03-16T14:41:45.463Z,68.33
2019-03-16T14:44:14.480Z,68.36
2019-03-16T14:46:43.488Z,68.93
2019-03-16T14:49:12.585Z,69.45
2019-03-16T14:51:41.624Z,69.12
2019-03-16T14:54:10.963Z,69.07
2019-03-16T14:56:40.270Z,69.18
2019-03-16T14:59:09.256Z,69.31
2019-03-16T15:01:38.567Z,69.05
2019-03-16T15:04:07.553Z,69.52
2019-03-16T15:06:36.569Z,69.51
2019-03-16T15:09:07.824Z,69.36
2019-03-16T15:11:37.228Z,69.11
2019-03-16T15:14:06.363Z,69.17
2019-03-16T15:16:35.425Z,68.95
2019-03-16T15:19:04.467Z,69.18
2019-03-16T15:21:33.482Z,67.89
2019-03-16T15:24:02.493Z,68.77
2019-03-16T15:26:31.979Z,68.25
2019-03-16T15:29:01.375Z,68.22
2019-03-16T15:31:30.402Z,68.62
2019-03-16T15:33:59.440Z,68.84
2019-03-16T15:36:28.822Z,68.15
2019-03-16T15:38:57.828Z,67.57
2019-03-16T15:41:26.844Z,68.33
2019-03-16T15:43:55.883Z,68.84
2019-03-16T15:46:25.288Z,68.04
2019-03-16T15:48:54.325Z,68.57
2019-03-16T15:51:24.182Z,68.26
2019-03-16T15:53:53.276Z,68.93
2019-03-16T15:56:22.360Z,68.94
2019-03-16T15:58:51.370Z,68.65
2019-03-16T16:01:20.428Z,68.50
2019-03-16T16:03:49.467Z,68.28
2019-03-16T16:06:18.791Z,68.14
2019-03-16T16:08:48.170Z,68.65
2019-03-16T16:11:17.192Z,68.73
2019-03-16T16:13:46.216Z,68.30
2019-03-16T16:16:15.270Z,69.02
2019-03-16T16:18:44.293Z,68.90
2019-03-16T16:21:13.299Z,68.15
2019-03-16T16:23:42.340Z,68.33
2019-03-16T16:26:11.724Z,68.45
2019-03-16T16:28:40.918Z,68.83
2019-03-16T16:31:16.184Z,68.50
2019-03-16T16:33:41.283Z,68.52
2019-03-16T16:36:10.326Z,68.89
2019-03-16T16:38:39.412Z,68.29
2019-03-16T16:41:08.453Z,68.39
2019-03-16T16:43:37.575Z,68.33
2019-03-16T16:46:06.806Z,68.91
2019-03-16T16:48:35.933Z,69.39
2019-03-16T16:51:04.990Z,69.49
2019-03-16T16:53:34.345Z,68.69
2019-03-16T16:56:03.396Z,69.08
2019-03-16T16:58:32.828Z,70.07
2019-03-16T17:01:01.873Z,69.42
2019-03-16T17:03:30.894Z,70.11
2019-03-16T17:05:59.960Z,70.04
2019-03-16T17:08:29.332Z,70.30
2019-03-16T17:10:58.674Z,70.24
2019-03-16T17:13:28.054Z,71.13
2019-03-16T17:15:57.154Z,70.60
2019-03-16T17:18:26.228Z,71.44
2019-03-16T17:20:55.524Z,71.75
2019-03-16T17:23:24.953Z,72.33
2019-03-16T17:25:54.025Z,72.78
2019-03-16T17:28:23.485Z,72.60
2019-03-16T17:30:53.389Z,72.31
2019-03-16T17:33:22.733Z,72.67
2019-03-16T17:35:52.548Z,72.62
2019-03-16T17:38:21.618Z,72.28
2019-03-16T17:40:50.739Z,72.96
2019-03-16T17:43:19.855Z,72.77
2019-03-16T17:45:48.884Z,73.38
2019-03-16T17:48:17.894Z,73.80
2019-03-16T17:50:46.918Z,73.58
2019-03-16T17:53:15.966Z,73.07
2019-03-16T17:55:44.972Z,73.49
2019-03-16T17:58:13.948Z,73.43
2019-03-16T18:00:42.964Z,73.97
2019-03-16T18:03:14.125Z,74.13
2019-03-16T18:05:43.042Z,74.05
2019-03-16T18:08:12.458Z,74.14
2019-03-16T18:10:41.476Z,74.12
2019-03-16T18:13:11.225Z,74.43
2019-03-16T18:15:40.328Z,74.48
2019-03-16T18:18:09.364Z,74.48
2019-03-16T18:20:38.424Z,74.83
2019-03-16T18:23:07.785Z,75.28
2019-03-16T18:25:37.904Z,74.96
2019-03-16T18:28:07.370Z,75.29
2019-03-16T18:30:36.436Z,75.71
2019-03-16T18:33:05.851Z,76.39
2019-03-16T18:35:35.052Z,76.35
2019-03-16T18:38:05.828Z,76.91
2019-03-16T18:40:34.882Z,77.63
2019-03-16T18:43:03.893Z,77.66
2019-03-16T18:45:33.296Z,77.95
2019-03-16T18:48:02.314Z,77.81
2019-03-16T18:50:31.339Z,77.81
2019-03-16T18:53:00.402Z,78.11
2019-03-16T18:55:29.392Z,78.26
2019-03-16T18:57:58.576Z,78.57
2019-03-16T19:00:27.974Z,78.85
2019-03-16T19:02:57.749Z,78.57
2019-03-16T19:05:27.150Z,78.74
2019-03-16T19:07:56.470Z,79.40
2019-03-16T19:10:25.828Z,78.91
2019-03-16T19:12:54.820Z,78.25
2019-03-16T19:15:23.836Z,78.33
2019-03-16T19:17:58.725Z,78.19
2019-03-16T19:20:23.610Z,78.05
2019-03-16T19:22:52.740Z,78.29
2019-03-16T19:25:22.005Z,77.62
2019-03-16T19:27:51.046Z,78.08
2019-03-16T19:30:20.117Z,77.84
2019-03-16T19:32:49.191Z,78.22
2019-03-16T19:35:18.266Z,78.31
2019-03-16T19:37:47.656Z,78.34
2019-03-16T19:40:16.740Z,78.22
2019-03-16T19:42:47.011Z,78.24
2019-03-16T19:45:16.417Z,78.31
2019-03-16T19:47:45.842Z,78.21
2019-03-16T19:50:15.289Z,78.22
2019-03-16T19:52:44.366Z,78.33
2019-03-16T19:55:14.129Z,78.47
2019-03-16T19:57:43.154Z,78.37
2019-03-16T20:00:13.551Z,78.14
2019-03-16T20:02:50.008Z,77.97
2019-03-16T20:05:13.317Z,78.41
2019-03-16T20:07:42.689Z,78.74
2019-03-16T20:10:13.037Z,79.53
2019-03-16T20:12:42.376Z,79.18
2019-03-16T20:15:11.796Z,79.09
2019-03-16T20:17:40.838Z,79.30
2019-03-16T20:20:10.353Z,79.09
2019-03-16T20:22:39.692Z,78.10
2019-03-16T20:25:09.171Z,77.59
2019-03-16T20:27:38.495Z,76.45
2019-03-16T20:30:08.558Z,75.67
2019-03-16T20:32:37.667Z,74.93
2019-03-16T20:35:07.192Z,74.68
2019-03-16T20:37:36.245Z,74.57
2019-03-16T20:40:06.203Z,74.38
2019-03-16T20:42:35.243Z,73.88
2019-03-16T20:45:05.193Z,73.71
2019-03-16T20:47:34.685Z,73.23
2019-03-16T20:50:04.530Z,73.17
2019-03-16T20:52:33.663Z,72.79
2019-03-16T20:55:02.686Z,72.07
2019-03-16T20:57:32.341Z,72.10
2019-03-16T21:00:01.343Z,72.41
2019-03-16T21:02:30.381Z,72.07
2019-03-16T21:04:59.451Z,72.50
2019-03-16T21:07:28.469Z,72.63
2019-03-16T21:09:57.911Z,72.76
2019-03-16T21:12:26.984Z,72.75
2019-03-16T21:14:56.329Z,72.22
2019-03-16T21:17:25.719Z,72.53
2019-03-16T21:19:55.140Z,72.63
2019-03-16T21:22:35.312Z,72.17
2019-03-16T21:24:55.300Z,70.64
2019-03-16T21:27:24.446Z,70.65
2019-03-16T21:29:53.927Z,70.66
2019-03-16T21:32:22.951Z,71.38
2019-03-16T21:34:51.987Z,71.51
2019-03-16T21:37:21.331Z,71.19
2019-03-16T21:39:50.342Z,70.58
2019-03-16T21:42:19.373Z,70.49
2019-03-16T21:44:48.371Z,68.43
2019-03-16T21:47:17.378Z,67.96
2019-03-16T21:49:46.405Z,67.03
2019-03-16T21:52:15.424Z,67.59
2019-03-16T21:54:44.761Z,68.30
2019-03-16T21:57:13.946Z,68.38
2019-03-16T21:59:43.435Z,69.05
2019-03-16T22:02:13.168Z,69.27
2019-03-16T22:04:42.263Z,69.38
2019-03-16T22:07:11.307Z,69.14
2019-03-16T22:09:40.718Z,70.09
2019-03-16T22:12:09.736Z,69.58
2019-03-16T22:14:39.075Z,69.48
2019-03-16T22:17:08.098Z,69.29
2019-03-16T22:19:37.166Z,68.73
2019-03-16T22:22:06.231Z,68.57
2019-03-16T22:24:35.443Z,69.17
2019-03-16T22:27:04.465Z,69.03
2019-03-16T22:29:33.509Z,67.95
2019-03-16T22:32:02.587Z,67.98
2019-03-16T22:34:32.034Z,67.83
2019-03-16T22:37:01.092Z,68.46
2019-03-16T22:39:30.447Z,68.54
2019-03-16T22:41:59.506Z,68.61
2019-03-16T22:44:28.845Z,69.60
2019-03-16T22:46:58.093Z,68.90
2019-03-16T22:49:27.126Z,68.51
2019-03-16T22:51:56.426Z,68.79
2019-03-16T22:54:25.474Z,69.21
2019-03-16T22:56:54.489Z,69.20
2019-03-16T22:59:23.553Z,69.20
2019-03-16T23:01:52.568Z,68.88
2019-03-16T23:04:21.939Z,68.45
2019-03-16T23:06:51.355Z,69.11
2019-03-16T23:09:20.361Z,68.38
2019-03-16T23:11:49.384Z,68.38
2019-03-16T23:14:18.387Z,69.30
2019-03-16T23:16:48.061Z,69.28
2019-03-16T23:19:17.078Z,69.86
2019-03-16T23:21:46.088Z,69.86
2019-03-16T23:24:15.128Z,69.23
2019-03-16T23:26:44.516Z,69.23
2019-03-16T23:29:13.561Z,69.92
2019-03-16T23:31:42.644Z,69.85
2019-03-16T23:34:18.990Z,71.00
2019-03-16T23:36:42.766Z,71.00
2019-03-16T23:39:11.789Z,70.83
2019-03-16T23:41:40.782Z,70.52
2019-03-16T23:44:09.871Z,71.12
2019-03-16T23:46:38.914Z,70.71
2019-03-16T23:49:08.281Z,70.71
2019-03-16T23:51:37.601Z,70.65
2019-03-16T23:54:06.647Z,70.65
2019-03-16T23:56:35.707Z,70.61
2019-03-16T23:59:04.707Z,71.28
